Time;durP1;ratioP1;P1;durP2;ratioP2;P2;SDS_P1;SDS_P2;PMS_P1;PMS_P2;Temp;Humidity;BMP_temperature;BMP_pressure;BME280_temperature;BME280_humidity;BME280_pressure;Samples;Min_cycle;Max_cycle;Signal;HPM_P1;HPM_P2
2022/06/09 00:00:24;;;;;;;12.65;3.92;;;14.90;99.90;;;;;;5055581;28;20048;-65
2022/06/09 00:02:53;;;;;;;29.65;4.85;;;14.90;99.90;;;;;;5055169;28;20041;-65
2022/06/09 00:05:20;;;;;;;20.70;4.38;;;14.80;99.90;;;;;;5056088;28;20045;-64
2022/06/09 00:07:48;;;;;;;19.55;5.13;;;14.80;99.90;;;;;;5055169;28;20095;-65
2022/06/09 00:10:20;;;;;;;16.50;3.78;;;14.80;99.90;;;;;;5055395;28;20412;-65
2022/06/09 00:12:47;;;;;;;12.68;3.67;;;14.70;99.90;;;;;;5037732;28;20045;-65
2022/06/09 00:15:14;;;;;;;13.18;4.57;;;14.60;99.90;;;;;;5037435;28;20048;-64
2022/06/09 00:17:42;;;;;;;18.17;4.35;;;14.60;99.90;;;;;;5054166;28;20053;-64
2022/06/09 00:20:09;;;;;;;17.08;5.13;;;14.50;99.90;;;;;;5054882;28;20133;-64
2022/06/09 00:22:36;;;;;;;14.40;4.75;;;14.50;99.90;;;;;;5053746;28;20049;-64
2022/06/09 00:25:04;;;;;;;18.88;5.75;;;14.40;99.90;;;;;;5054832;28;20136;-64
2022/06/09 00:27:31;;;;;;;13.73;4.40;;;14.40;99.90;;;;;;5053953;28;20049;-64
2022/06/09 00:29:58;;;;;;;15.88;4.03;;;14.30;99.90;;;;;;5055827;28;20360;-64
2022/06/09 00:32:24;;;;;;;25.20;5.10;;;14.30;99.90;;;;;;5055075;28;20048;-64
2022/06/09 00:34:51;;;;;;;18.10;3.25;;;14.20;99.90;;;;;;5055276;28;20037;-64
2022/06/09 00:37:18;;;;;;;19.48;5.18;;;14.20;99.90;;;;;;5055760;28;20044;-64
2022/06/09 00:39:45;;;;;;;19.67;5.18;;;14.20;99.90;;;;;;5054768;28;20045;-64
2022/06/09 00:42:12;;;;;;;15.80;3.92;;;14.10;99.90;;;;;;5053822;28;20080;-64
2022/06/09 00:44:39;;;;;;;18.67;4.25;;;14.10;99.90;;;;;;5054193;28;20049;-64
2022/06/09 00:47:16;;;;;;;16.27;4.53;;;14.10;99.90;;;;;;5054798;28;20484;-64
2022/06/09 00:50:08;;;;;;;14.43;4.20;;;14.10;99.90;;;;;;5055495;28;20041;-64
2022/06/09 00:52:37;;;;;;;18.92;4.13;;;14.00;99.90;;;;;;5054238;28;20056;-64
2022/06/09 00:55:07;;;;;;;17.08;3.95;;;14.00;99.90;;;;;;5037378;28;20045;-64
2022/06/09 00:57:40;;;;;;;15.32;4.38;;;13.90;99.90;;;;;;5054904;28;20053;-64
2022/06/09 01:00:10;;;;;;;19.83;4.85;;;13.90;99.90;;;;;;5053108;28;20060;-64
2022/06/09 01:02:37;;;;;;;15.10;5.70;;;13.90;99.90;;;;;;5054199;28;20136;-63
2022/06/09 01:05:05;;;;;;;18.17;4.88;;;13.80;99.90;;;;;;5054079;28;20082;-64
2022/06/09 01:07:35;;;;;;;20.67;4.47;;;13.70;99.90;;;;;;5054044;28;20051;-64
2022/06/09 01:10:03;;;;;;;19.45;4.53;;;13.70;99.90;;;;;;5053089;28;20473;-64
2022/06/09 01:12:31;;;;;;;18.25;4.50;;;13.70;99.90;;;;;;5052780;28;20044;-63
2022/06/09 01:15:09;;;;;;;28.77;5.77;;;13.60;99.90;;;;;;5054279;28;20045;-63
2022/06/09 01:17:42;;;;;;;23.52;5.75;;;13.60;99.90;;;;;;5053927;28;20041;-64
2022/06/09 01:20:24;;;;;;;15.48;5.55;;;13.60;99.90;;;;;;5054642;28;20045;-63
2022/06/09 01:23:23;;;;;;;15.55;4.75;;;13.50;99.90;;;;;;5054039;28;20387;-63
2022/06/09 01:26:26;;;;;;;18.73;5.25;;;13.50;99.90;;;;;;5052549;28;20047;-63
2022/06/09 01:29:12;;;;;;;19.60;4.65;;;13.40;99.90;;;;;;5053591;28;20052;-63
2022/06/09 01:31:43;;;;;;;13.50;4.38;;;13.40;99.90;;;;;;5054250;28;20045;-63
2022/06/09 01:34:13;;;;;;;16.77;5.22;;;13.30;99.90;;;;;;5053581;28;20041;-63
2022/06/09 01:37:01;;;;;;;20.08;4.00;;;13.30;99.90;;;;;;5052702;28;20048;-63
2022/06/09 01:39:46;;;;;;;18.65;5.55;;;13.30;99.90;;;;;;5052456;28;20115;-64
2022/06/09 01:42:28;;;;;;;13.65;3.92;;;13.30;99.90;;;;;;5054035;28;20461;-63
2022/06/09 01:45:01;;;;;;;22.00;5.53;;;13.20;99.90;;;;;;5052595;28;20049;-63
2022/06/09 01:47:33;;;;;;;14.85;4.22;;;13.20;99.90;;;;;;5054161;28;20349;-63
2022/06/09 01:50:02;;;;;;;13.15;4.93;;;13.10;99.90;;;;;;5036102;28;20048;-63
2022/06/09 01:52:29;;;;;;;20.33;5.90;;;13.10;99.90;;;;;;5052464;28;20040;-63
2022/06/09 01:54:56;;;;;;;18.45;4.47;;;13.10;99.90;;;;;;5052445;28;20468;-63
2022/06/09 01:57:26;;;;;;;17.25;5.38;;;13.00;99.90;;;;;;5052380;28;20469;-63
2022/06/09 01:59:59;;;;;;;20.10;5.88;;;13.00;99.90;;;;;;5052392;28;20483;-64
2022/06/09 02:02:28;;;;;;;14.43;4.38;;;13.00;99.90;;;;;;5052921;28;20041;-63
2022/06/09 02:05:00;;;;;;;17.27;5.63;;;13.00;99.90;;;;;;5052299;28;20040;-63
2022/06/09 02:07:28;;;;;;;16.40;5.13;;;13.00;99.90;;;;;;5052883;28;20041;-63
2022/06/09 02:09:55;;;;;;;24.33;5.07;;;12.90;99.90;;;;;;5035340;28;20057;-63
2022/06/09 02:12:23;;;;;;;12.68;5.57;;;12.90;99.90;;;;;;5053054;28;20041;-63
2022/06/09 02:14:53;;;;;;;24.13;5.83;;;12.80;99.90;;;;;;5051890;28;20045;-63
2022/06/09 02:17:20;;;;;;;15.27;4.38;;;12.80;99.90;;;;;;5051785;28;20056;-63
2022/06/09 02:19:47;;;;;;;14.32;5.75;;;12.80;99.90;;;;;;5052991;28;20055;-63
2022/06/09 02:22:14;;;;;;;24.00;5.68;;;12.80;99.90;;;;;;5051845;28;20048;-63
2022/06/09 02:24:41;;;;;;;25.40;7.03;;;12.70;99.90;;;;;;5053216;28;20048;-63
2022/06/09 02:27:09;;;;;;;14.20;4.40;;;12.70;99.90;;;;;;5053719;28;20049;-63
2022/06/09 02:29:36;;;;;;;24.48;6.05;;;12.70;99.90;;;;;;5052895;28;20045;-63
2022/06/09 02:32:03;;;;;;;21.23;5.97;;;12.70;99.90;;;;;;5051693;28;20041;-65
2022/06/09 02:34:30;;;;;;;14.45;5.22;;;12.60;99.90;;;;;;5052017;28;20384;-63
2022/06/09 02:36:58;;;;;;;19.48;4.95;;;12.60;99.90;;;;;;5052875;28;20150;-63
2022/06/09 02:39:24;;;;;;;21.48;5.75;;;12.60;99.90;;;;;;5053711;28;20045;-63
2022/06/09 02:41:51;;;;;;;20.92;5.18;;;12.60;99.90;;;;;;5052840;28;20480;-63
2022/06/09 02:44:18;;;;;;;17.58;5.60;;;12.60;99.90;;;;;;5052661;28;20056;-63
2022/06/09 02:46:45;;;;;;;23.42;5.32;;;12.50;99.90;;;;;;5053628;28;20052;-63
2022/06/09 02:49:12;;;;;;;19.38;4.95;;;12.50;99.90;;;;;;5053570;28;20056;-63
2022/06/09 02:51:40;;;;;;;20.60;5.20;;;12.50;99.90;;;;;;5053014;28;20362;-63
2022/06/09 02:54:12;;;;;;;18.23;5.20;;;12.50;99.90;;;;;;5051495;28;20448;-63
2022/06/09 02:56:42;;;;;;;18.65;5.20;;;12.50;99.90;;;;;;5053045;28;20457;-63
2022/06/09 02:59:10;;;;;;;21.70;5.30;;;12.50;99.90;;;;;;5051458;28;20036;-63
2022/06/09 03:01:37;;;;;;;16.88;5.65;;;12.40;99.90;;;;;;5053941;28;20348;-63
2022/06/09 03:04:05;;;;;;;20.40;5.25;;;12.50;99.90;;;;;;5056599;28;20081;-63
2022/06/09 03:06:32;;;;;;;24.55;7.05;;;12.40;99.90;;;;;;5056381;28;20044;-63
2022/06/09 03:09:00;;;;;;;18.13;4.53;;;12.40;99.90;;;;;;5055117;28;20491;-70
2022/06/09 03:11:27;;;;;;;39.95;23.17;;;12.40;99.90;;;;;;5056298;28;20334;-64
2022/06/09 03:13:54;;;;;;;36.38;18.42;;;12.40;99.90;;;;;;5057023;28;20041;-64
2022/06/09 03:16:21;;;;;;;31.27;8.68;;;12.40;99.90;;;;;;5038674;28;20509;-67
2022/06/09 03:18:48;;;;;;;20.85;6.72;;;12.40;99.90;;;;;;5056069;28;20440;-67
2022/06/09 03:21:15;;;;;;;15.13;5.72;;;12.40;99.90;;;;;;5056109;28;20468;-66
2022/06/09 03:23:42;;;;;;;20.95;5.43;;;12.40;99.90;;;;;;5056301;28;20123;-67
2022/06/09 03:26:09;;;;;;;22.45;5.10;;;12.30;99.90;;;;;;5056332;28;20472;-67
2022/06/09 03:28:36;;;;;;;21.83;5.35;;;12.30;99.90;;;;;;5054814;28;20468;-67
2022/06/09 03:31:03;;;;;;;21.63;4.72;;;12.30;99.90;;;;;;5055885;28;20041;-67
2022/06/09 03:33:30;;;;;;;22.15;5.50;;;12.30;99.90;;;;;;5054960;28;20115;-67
2022/06/09 03:35:56;;;;;;;23.75;5.30;;;12.30;99.90;;;;;;5054620;28;20477;-67
2022/06/09 03:38:23;;;;;;;22.35;6.45;;;12.30;99.90;;;;;;5054568;28;20044;-66
2022/06/09 03:40:50;;;;;;;19.58;6.30;;;12.30;99.90;;;;;;5054838;28;20045;-67
2022/06/09 03:43:17;;;;;;;21.70;6.13;;;12.30;99.90;;;;;;5054742;28;20049;-67
2022/06/09 03:45:44;;;;;;;18.73;5.55;;;12.20;99.90;;;;;;5055874;28;20080;-67
2022/06/09 03:48:11;;;;;;;19.90;5.45;;;12.20;99.90;;;;;;5037704;28;20049;-67
2022/06/09 03:50:38;;;;;;;21.48;7.03;;;12.20;99.90;;;;;;5055491;28;20045;-66
2022/06/09 03:53:05;;;;;;;17.23;5.47;;;12.20;99.90;;;;;;5055512;28;20056;-66
2022/06/09 03:55:33;;;;;;;18.05;4.30;;;12.30;99.90;;;;;;5055121;28;20060;-67
2022/06/09 03:58:00;;;;;;;17.30;5.88;;;12.20;99.90;;;;;;5056261;28;20371;-67
2022/06/09 04:00:28;;;;;;;20.48;5.13;;;12.20;99.90;;;;;;5056506;28;20100;-67
2022/06/09 04:02:55;;;;;;;14.77;5.60;;;12.30;99.90;;;;;;5054976;28;20049;-67
2022/06/09 04:05:22;;;;;;;21.88;6.50;;;12.30;99.90;;;;;;5055264;28;20080;-67
2022/06/09 04:07:49;;;;;;;14.70;5.07;;;12.30;99.90;;;;;;5055168;28;20045;-66
2022/06/09 04:10:21;;;;;;;24.20;4.80;;;12.30;99.90;;;;;;5054335;28;20052;-67
2022/06/09 04:12:47;;;;;;;18.08;5.85;;;12.30;99.90;;;;;;5054833;28;20048;-66
2022/06/09 04:15:15;;;;;;;17.25;5.93;;;12.30;99.90;;;;;;5055182;28;20083;-70
2022/06/09 04:17:43;;;;;;;22.83;11.88;;;12.40;99.90;;;;;;5053848;28;20051;-59
2022/06/09 04:20:10;;;;;;;43.30;26.50;;;12.40;99.90;;;;;;5056104;28;20099;-66
2022/06/09 04:22:37;;;;;;;29.83;15.45;;;12.50;99.90;;;;;;5054996;28;20053;-66
2022/06/09 04:25:05;;;;;;;19.55;7.30;;;12.50;99.90;;;;;;5055287;28;20041;-67
2022/06/09 04:27:32;;;;;;;20.65;6.05;;;12.50;99.90;;;;;;5054028;28;20163;-67
2022/06/09 04:29:59;;;;;;;18.27;5.93;;;12.50;99.90;;;;;;5054889;28;20131;-66
2022/06/09 04:32:26;;;;;;;18.10;5.38;;;12.50;99.90;;;;;;5053466;28;20491;-66
2022/06/09 04:34:53;;;;;;;17.40;5.93;;;12.60;99.90;;;;;;5054958;28;20492;-66
2022/06/09 04:37:20;;;;;;;19.75;6.35;;;12.60;99.90;;;;;;5053455;28;20053;-67
2022/06/09 04:39:46;;;;;;;13.27;4.40;;;12.70;99.90;;;;;;5053439;28;20048;-66
2022/06/09 04:42:13;;;;;;;22.17;5.30;;;12.90;99.90;;;;;;5054867;28;20052;-67
2022/06/09 04:44:41;;;;;;;21.23;5.85;;;13.20;99.90;;;;;;5053627;28;20044;-67
2022/06/09 04:47:08;;;;;;;15.32;5.90;;;13.60;99.90;;;;;;5055150;28;20379;-67
2022/06/09 04:49:34;;;;;;;18.88;5.25;;;14.00;99.90;;;;;;5055222;28;20041;-66
2022/06/09 04:52:01;;;;;;;15.07;5.35;;;14.40;99.90;;;;;;5053028;28;20041;-66
2022/06/09 04:54:28;;;;;;;12.82;4.60;;;14.80;99.90;;;;;;5054251;28;20495;-67
2022/06/09 04:56:55;;;;;;;14.68;4.93;;;15.20;99.90;;;;;;5054155;28;20048;-67
2022/06/09 04:59:22;;;;;;;13.82;4.35;;;15.50;99.90;;;;;;5054174;28;20048;-67
2022/06/09 05:01:49;;;;;;;16.75;4.75;;;16.00;99.90;;;;;;5053212;28;20041;-67
2022/06/09 05:04:16;;;;;;;13.57;3.95;;;16.40;99.90;;;;;;5054109;28;20044;-67
2022/06/09 05:06:43;;;;;;;12.43;4.45;;;16.80;99.90;;;;;;5054004;28;20041;-67
2022/06/09 05:09:10;;;;;;;16.23;6.32;;;17.20;99.90;;;;;;5053962;28;20043;-67
2022/06/09 05:11:37;;;;;;;13.63;4.20;;;17.60;99.90;;;;;;5053907;28;20041;-67
2022/06/09 05:14:03;;;;;;;13.55;4.55;;;17.90;99.90;;;;;;5053898;28;20131;-67
2022/06/09 05:16:31;;;;;;;11.70;4.57;;;18.20;99.90;;;;;;5052979;28;20052;-67
2022/06/09 05:18:57;;;;;;;10.43;3.47;;;18.50;99.90;;;;;;5054058;28;20079;-67
2022/06/09 05:21:30;;;;;;;14.73;4.15;;;18.60;99.90;;;;;;5054561;28;20052;-67
2022/06/09 05:23:57;;;;;;;11.98;4.15;;;19.00;99.90;;;;;;5053673;28;20045;-67
2022/06/09 05:26:24;;;;;;;9.73;3.80;;;19.20;99.90;;;;;;5053598;28;20103;-67
2022/06/09 05:28:51;;;;;;;19.67;4.15;;;19.30;99.90;;;;;;5053926;28;20048;-67
2022/06/09 05:31:18;;;;;;;15.20;4.95;;;19.20;99.90;;;;;;5052676;28;20047;-67
2022/06/09 05:33:45;;;;;;;14.30;4.32;;;19.10;99.90;;;;;;5053439;28;20053;-68
2022/06/09 05:36:11;;;;;;;14.75;4.03;;;19.10;99.90;;;;;;5036137;28;20410;-67
2022/06/09 05:46:55;;;;;;;15.07;5.18;;;18.30;99.90;;;;;;5054695;28;20063;-67
2022/06/09 05:49:22;;;;;;;14.43;4.38;;;18.00;99.90;;;;;;5052088;28;20060;-65
2022/06/09 05:51:50;;;;;;;13.65;6.72;;;17.90;99.90;;;;;;5052367;28;20067;-66
2022/06/09 05:54:17;;;;;;;35.92;21.25;;;17.70;99.90;;;;;;5053608;28;20047;-66
2022/06/09 05:56:44;;;;;;;16.27;7.40;;;17.80;99.90;;;;;;5052043;28;20047;-66
2022/06/09 05:59:11;;;;;;;20.52;6.13;;;17.70;99.90;;;;;;5052206;28;20041;-63
2022/06/09 06:01:38;;;;;;;14.40;4.88;;;17.70;99.90;;;;;;5053470;28;20037;-67
2022/06/09 06:04:06;;;;;;;18.33;4.53;;;17.80;99.90;;;;;;5036473;28;20048;-67
2022/06/09 06:06:33;;;;;;;13.65;5.03;;;17.80;99.90;;;;;;5053149;28;20477;-66
2022/06/09 06:09:15;;;;;;;20.50;5.72;;;17.80;99.90;;;;;;5052882;28;20059;-66
2022/06/09 06:11:43;;;;;;;19.92;4.25;;;17.80;99.90;;;;;;5052245;28;20052;-66
2022/06/09 06:14:10;;;;;;;12.30;4.47;;;17.70;99.90;;;;;;5052988;28;20049;-61
2022/06/09 06:16:37;;;;;;;31.38;20.23;;;17.60;99.90;;;;;;5053099;28;20045;-61
2022/06/09 06:19:05;;;;;;;35.15;25.17;;;17.60;99.90;;;;;;5051892;28;20052;-59
2022/06/09 06:21:32;;;;;;;30.05;14.00;;;17.60;99.90;;;;;;5053256;28;20136;-63
2022/06/09 06:24:00;;;;;;;20.70;7.13;;;17.60;99.90;;;;;;5052964;28;20041;-63
2022/06/09 06:26:26;;;;;;;17.88;5.75;;;17.60;99.90;;;;;;5035348;28;20045;-62
2022/06/09 06:28:53;;;;;;;16.02;5.85;;;17.50;99.90;;;;;;5052891;28;20474;-62
2022/06/09 06:31:20;;;;;;;21.45;5.18;;;17.40;99.90;;;;;;5051650;28;20045;-62
2022/06/09 06:33:47;;;;;;;14.02;4.80;;;17.40;99.90;;;;;;5052858;28;20049;-62
2022/06/09 06:36:14;;;;;;;19.33;5.05;;;17.40;99.90;;;;;;5053344;28;20040;-62
2022/06/09 06:38:41;;;;;;;14.35;5.07;;;17.50;99.90;;;;;;5055974;28;20044;-61
2022/06/09 06:41:09;;;;;;;16.33;5.20;;;17.50;99.90;;;;;;5055891;28;20056;-63
2022/06/09 06:43:42;;;;;;;21.85;5.43;;;17.50;99.90;;;;;;5056748;28;20041;-62
2022/06/09 06:46:09;;;;;;;16.80;5.22;;;17.60;99.90;;;;;;5057533;28;20040;-61
2022/06/09 06:48:36;;;;;;;13.05;4.40;;;17.50;99.90;;;;;;5055613;28;20132;-63
2022/06/09 06:51:05;;;;;;;15.93;5.55;;;17.60;99.90;;;;;;5055743;28;20048;-64
2022/06/09 06:53:33;;;;;;;20.85;6.28;;;17.80;99.90;;;;;;5055443;28;20044;-63
2022/06/09 06:56:00;;;;;;;18.30;4.72;;;17.90;99.90;;;;;;5056564;28;20487;-63
2022/06/09 06:58:27;;;;;;;17.23;4.97;;;17.90;99.90;;;;;;5056373;28;20048;-63
2022/06/09 07:00:54;;;;;;;13.13;4.78;;;18.10;99.90;;;;;;5056734;28;20037;-62
2022/06/09 07:03:21;;;;;;;15.40;4.22;;;18.10;99.90;;;;;;5055165;28;20084;-62
2022/06/09 07:05:59;;;;;;;14.77;4.75;;;18.20;99.90;;;;;;5041081;28;20091;-81
2022/06/09 07:08:26;;;;;;;12.85;4.03;;;18.20;99.90;;;;;;5056215;28;20041;-70
2022/06/09 07:10:53;;;;;;;14.23;3.80;;;18.50;99.90;;;;;;5055353;28;20392;-65
2022/06/09 07:13:20;;;;;;;13.85;4.20;;;18.60;99.90;;;;;;5056039;28;20045;-64
2022/06/09 07:15:47;;;;;;;10.70;3.72;;;18.80;99.90;;;;;;5056191;28;20051;-65
2022/06/09 07:18:14;;;;;;;12.70;5.28;;;19.00;99.90;;;;;;5055261;28;20476;-66
2022/06/09 07:20:41;;;;;;;17.67;5.18;;;19.00;99.90;;;;;;5055177;28;20087;-66
2022/06/09 07:23:08;;;;;;;12.75;4.30;;;19.10;99.90;;;;;;5055683;28;20393;-66
2022/06/09 07:25:36;;;;;;;12.90;3.47;;;19.20;99.90;;;;;;5055971;28;20037;-68
2022/06/09 07:28:03;;;;;;;15.60;5.18;;;19.40;99.90;;;;;;5056262;28;20056;-68
2022/06/09 07:30:30;;;;;;;33.28;20.90;;;19.50;99.90;;;;;;5056265;28;20067;-68
2022/06/09 07:32:57;;;;;;;49.63;37.47;;;19.60;99.90;;;;;;5054910;28;20049;-67
2022/06/09 07:35:25;;;;;;;15.48;6.68;;;19.60;99.90;;;;;;5056120;28;20078;-69
2022/06/09 07:37:52;;;;;;;12.15;4.57;;;19.60;99.90;;;;;;5054766;28;20365;-67
2022/06/09 07:40:19;;;;;;;14.93;4.20;;;19.60;99.90;;;;;;5054894;28;20384;-66
2022/06/09 07:42:48;;;;;;;13.13;4.10;;;19.50;99.90;;;;;;5038388;28;20052;-67
2022/06/09 07:45:16;;;;;;;10.38;4.13;;;19.50;99.90;;;;;;5054752;28;20052;-65
2022/06/09 07:47:43;;;;;;;11.88;4.50;;;19.50;99.90;;;;;;5055075;28;20049;-67
2022/06/09 07:50:10;;;;;;;13.80;3.90;;;19.40;99.90;;;;;;5055276;28;20040;-65
2022/06/09 07:52:43;;;;;;;11.35;3.72;;;19.50;99.90;;;;;;5039820;28;20041;-67
2022/06/09 07:55:10;;;;;;;12.63;3.95;;;19.50;99.90;;;;;;5055752;28;20037;-66
2022/06/09 07:57:37;;;;;;;12.75;3.67;;;19.60;99.90;;;;;;5054313;28;20037;-68
2022/06/09 08:00:06;;;;;;;12.73;4.00;;;19.50;99.90;;;;;;5055738;28;20041;-68
2022/06/09 08:02:33;;;;;;;10.85;3.35;;;19.40;99.90;;;;;;5054997;28;20041;-67
2022/06/09 08:05:00;;;;;;;13.07;3.45;;;19.40;99.90;;;;;;5054426;28;20068;-68
2022/06/09 08:07:27;;;;;;;15.80;4.95;;;19.40;99.90;;;;;;5056325;28;20045;-66
2022/06/09 08:09:53;;;;;;;13.00;3.75;;;19.40;99.90;;;;;;5055147;28;20464;-67
2022/06/09 08:12:20;;;;;;;11.07;3.67;;;19.40;99.90;;;;;;5037298;28;20052;-66
2022/06/09 08:14:47;;;;;;;15.82;4.72;;;19.40;99.90;;;;;;5054099;28;20487;-66
2022/06/09 08:17:14;;;;;;;9.05;3.20;;;19.50;99.90;;;;;;5054118;28;20076;-65
2022/06/09 08:19:42;;;;;;;8.13;2.92;;;19.50;99.90;;;;;;5053810;28;20048;-73
2022/06/09 08:22:09;;;;;;;43.50;33.05;;;19.60;99.90;;;;;;5054014;28;20473;-66
2022/06/09 08:24:36;;;;;;;12.80;5.15;;;19.60;99.90;;;;;;5054858;28;20044;-66
2022/06/09 08:27:03;;;;;;;9.77;3.47;;;19.70;99.90;;;;;;5054817;28;20495;-66
2022/06/09 08:29:30;;;;;;;12.43;3.75;;;19.60;97.30;;;;;;5054411;28;20040;-66
2022/06/09 08:31:58;;;;;;;10.25;2.83;;;19.60;98.60;;;;;;5054349;28;20045;-66
2022/06/09 08:34:25;;;;;;;10.73;2.83;;;19.70;98.30;;;;;;5053540;28;20041;-66
2022/06/09 08:36:52;;;;;;;8.10;3.08;;;19.70;98.80;;;;;;5053337;28;20090;-66
2022/06/09 08:39:19;;;;;;;9.63;3.78;;;19.80;99.20;;;;;;5053363;28;20051;-66
2022/06/09 08:41:58;;;;;;;10.70;3.97;;;19.90;98.10;;;;;;5054789;28;20054;-66
2022/06/09 08:44:29;;;;;;;9.45;3.50;;;19.90;96.70;;;;;;5054093;28;20051;-66
2022/06/09 08:47:15;;;;;;;8.02;2.88;;;19.80;96.00;;;;;;5054245;28;20362;-66
2022/06/09 08:50:11;;;;;;;9.23;3.00;;;19.60;94.30;;;;;;5053287;28;20056;-66
2022/06/09 08:52:49;;;;;;;10.35;3.40;;;19.70;96.10;;;;;;5038705;28;20052;-66
2022/06/09 08:55:27;;;;;;;7.32;2.72;;;19.80;95.20;;;;;;5037824;28;20052;-66
2022/06/09 08:57:58;;;;;;;10.10;3.58;;;19.90;94.80;;;;;;5054551;28;20056;-66
2022/06/09 09:00:31;;;;;;;10.93;2.65;;;20.00;95.30;;;;;;5037550;28;20044;-66
2022/06/09 09:03:04;;;;;;;11.65;2.92;;;20.20;94.20;;;;;;5053518;28;20057;-66
2022/06/09 09:05:47;;;;;;;8.50;2.97;;;20.30;94.40;;;;;;5053856;28;20045;-66
2022/06/09 09:08:14;;;;;;;8.18;3.00;;;20.50;91.90;;;;;;5037461;28;20045;-66
2022/06/09 09:10:56;;;;;;;8.35;2.75;;;20.50;93.30;;;;;;5053809;28;20127;-66
2022/06/09 09:13:24;;;;;;;7.22;2.88;;;20.70;93.00;;;;;;5053877;28;20429;-66
2022/06/09 09:16:02;;;;;;;10.30;3.27;;;20.70;91.80;;;;;;5054408;28;20506;-66
2022/06/09 09:18:44;;;;;;;5.75;2.47;;;20.90;89.40;;;;;;5053921;28;20049;-66
2022/06/09 09:21:32;;;;;;;8.25;2.75;;;21.10;89.40;;;;;;5052638;28;20041;-65
2022/06/09 09:24:04;;;;;;;7.28;2.58;;;21.20;82.30;;;;;;5054130;28;20056;-66
2022/06/09 09:26:30;;;;;;;8.80;1.90;;;21.20;83.20;;;;;;5053654;28;20040;-66
2022/06/09 09:29:38;;;;;;;6.53;2.03;;;21.30;83.70;;;;;;5053992;28;20045;-66
2022/06/09 09:32:08;;;;;;;7.18;2.25;;;21.30;78.40;;;;;;5052622;28;20041;-66
2022/06/09 09:34:37;;;;;;;7.90;2.53;;;21.10;80.20;;;;;;5036013;28;20079;-66
2022/06/09 09:37:28;;;;;;;7.28;2.17;;;20.90;80.50;;;;;;5053535;28;20037;-66
2022/06/09 09:40:05;;;;;;;9.40;2.85;;;20.90;82.00;;;;;;5053162;28;20381;-66
2022/06/09 09:42:33;;;;;;;6.38;2.58;;;20.90;84.70;;;;;;5054391;28;20421;-66
2022/06/09 09:45:06;;;;;;;8.32;2.90;;;21.20;85.60;;;;;;5052290;28;20041;-66
2022/06/09 09:47:55;;;;;;;8.40;3.00;;;21.30;84.10;;;;;;5053426;28;20048;-66
2022/06/09 09:50:38;;;;;;;6.38;2.20;;;21.50;83.30;;;;;;5036127;28;20044;-66
2022/06/09 09:53:28;;;;;;;8.43;2.88;;;21.80;81.00;;;;;;5053372;28;20048;-66
2022/06/09 09:56:01;;;;;;;6.63;2.75;;;22.20;79.70;;;;;;5036561;28;20389;-66
2022/06/09 09:58:34;;;;;;;8.07;3.63;;;22.30;82.20;;;;;;5053256;28;20041;-66
2022/06/09 10:01:18;;;;;;;6.97;2.78;;;22.60;79.70;;;;;;5053183;28;20040;-66
2022/06/09 10:10:13;;;;;;;8.02;2.35;;;22.50;77.40;;;;;;5052743;28;20478;-66
2022/06/09 10:12:40;;;;;;;7.57;2.50;;;22.60;74.10;;;;;;5051417;28;20048;-66
2022/06/09 10:15:10;;;;;;;8.73;2.60;;;22.60;76.30;;;;;;5053100;28;20041;-66
2022/06/09 10:17:59;;;;;;;6.78;2.60;;;22.60;76.20;;;;;;5053312;28;20045;-66
2022/06/09 10:21:02;;;;;;;7.32;2.28;;;22.70;75.30;;;;;;5052219;28;20127;-67
2022/06/09 10:24:00;;;;;;;7.47;2.45;;;22.80;72.30;;;;;;5052335;28;20369;-67
2022/06/09 10:26:36;;;;;;;7.80;2.57;;;23.00;72.50;;;;;;5052656;28;20052;-67
2022/06/09 10:29:18;;;;;;;6.32;2.80;;;23.10;74.60;;;;;;5051745;28;20056;-66
2022/06/09 10:31:55;;;;;;;6.47;2.38;;;23.20;72.90;;;;;;5051721;28;20041;-67
2022/06/09 10:34:22;;;;;;;7.70;2.45;;;23.20;73.20;;;;;;5052590;28;20385;-67
2022/06/09 10:36:55;;;;;;;8.93;2.42;;;23.10;71.90;;;;;;5052822;28;20052;-67
2022/06/09 10:39:59;;;;;;;9.77;2.05;;;23.00;69.60;;;;;;5052546;28;20092;-67
2022/06/09 10:42:46;;;;;;;14.18;6.78;;;23.00;70.20;;;;;;5053067;28;20055;-65
2022/06/09 10:45:43;;;;;;;6.38;2.35;;;23.00;71.10;;;;;;5052451;28;20072;-71
2022/06/09 10:57:23;;;;;;;8.07;3.50;;;22.70;74.10;;;;;;5053823;28;20041;-65
2022/06/09 11:00:04;;;;;;;9.90;2.20;;;22.60;73.50;;;;;;5051506;28;20124;-66
2022/06/09 11:02:31;;;;;;;8.32;2.10;;;22.50;73.10;;;;;;5052369;28;20041;-65
2022/06/09 11:04:58;;;;;;;8.18;2.05;;;22.50;73.40;;;;;;5051439;28;20045;-66
2022/06/09 11:07:41;;;;;;;10.02;3.33;;;22.60;74.20;;;;;;5052865;28;20128;-64
2022/06/09 11:10:08;;;;;;;6.70;2.30;;;22.80;72.20;;;;;;5051399;28;20052;-64
2022/06/09 11:12:40;;;;;;;7.13;2.17;;;22.80;72.60;;;;;;5052731;28;20052;-74
2022/06/09 11:15:34;;;;;;;8.95;2.38;;;22.80;73.50;;;;;;5052575;28;20044;-75
2022/06/09 11:18:07;;;;;;;6.18;2.20;;;22.90;73.30;;;;;;5052602;28;20558;-80
2022/06/09 11:21:03;;;;;;;8.90;2.60;;;22.70;75.40;;;;;;5052753;28;20041;-76
2022/06/09 11:23:33;;;;;;;10.18;3.05;;;22.60;72.40;;;;;;5053439;28;20131;-78
2022/06/09 11:26:29;;;;;;;6.18;2.63;;;22.30;73.60;;;;;;5055991;28;20048;-80
2022/06/09 11:29:18;;;;;;;6.82;2.30;;;22.20;73.80;;;;;;5051310;28;20045;-76
2022/06/09 11:32:03;;;;;;;26.02;21.15;;;22.20;74.30;;;;;;5057040;28;20041;-66
2022/06/09 11:35:02;;;;;;;36.88;31.92;;;22.10;73.10;;;;;;5056138;28;20154;-67
2022/06/09 11:37:32;;;;;;;11.43;7.32;;;22.20;74.40;;;;;;5054936;28;20048;-67
2022/06/09 11:40:09;;;;;;;8.18;3.47;;;22.20;75.50;;;;;;5055735;28;20044;-68
2022/06/09 11:43:18;;;;;;;7.68;3.10;;;22.10;76.50;;;;;;5054688;28;20056;-69
2022/06/09 11:46:00;;;;;;;10.75;3.42;;;21.90;75.50;;;;;;5036522;28;20037;-69
2022/06/09 11:48:35;;;;;;;8.73;2.80;;;21.80;74.30;;;;;;5055036;28;20041;-69
2022/06/09 11:51:02;;;;;;;5.40;2.53;;;21.90;75.20;;;;;;5038205;28;20055;-64
2022/06/09 11:53:30;;;;;;;7.38;2.78;;;21.90;72.50;;;;;;5055028;28;20055;-68
2022/06/09 11:56:34;;;;;;;9.33;2.37;;;22.10;74.00;;;;;;5054225;28;20044;-68
2022/06/09 11:59:21;;;;;;;6.65;3.13;;;22.30;72.90;;;;;;5052953;28;20055;-72
2022/06/09 12:02:23;;;;;;;7.78;3.40;;;22.50;73.40;;;;;;5056381;28;20049;-73
2022/06/09 12:05:02;;;;;;;9.80;3.20;;;22.70;73.70;;;;;;5043117;28;20111;-66
2022/06/09 12:08:00;;;;;;;6.35;2.22;;;22.90;74.30;;;;;;5056051;28;20041;-64
2022/06/09 12:10:28;;;;;;;5.30;2.22;;;23.00;75.20;;;;;;5051830;28;20060;-65
2022/06/09 12:13:23;;;;;;;73.03;20.77;;;23.00;72.30;;;;;;5055758;28;20045;-59
2022/06/09 12:16:02;;;;;;;11.07;4.20;;;23.20;73.10;;;;;;5054577;28;20045;-59
2022/06/09 12:18:34;;;;;;;9.52;3.10;;;23.20;74.40;;;;;;5054237;28;20044;-62
2022/06/09 12:21:11;;;;;;;9.70;3.92;;;23.20;69.70;;;;;;5055198;28;20052;-64
2022/06/09 12:23:59;;;;;;;6.95;2.25;;;23.20;70.60;;;;;;5056027;28;20040;-61
2022/06/09 12:26:49;;;;;;;13.35;2.85;;;23.30;74.10;;;;;;5050255;28;20056;-63
2022/06/09 12:29:34;;;;;;;12.57;2.75;;;23.20;73.20;;;;;;5044061;28;20041;-63
2022/06/09 12:32:10;;;;;;;7.25;2.42;;;23.10;73.70;;;;;;5055947;28;20051;-64
2022/06/09 12:34:46;;;;;;;7.72;1.98;;;22.90;75.20;;;;;;5054525;28;20140;-71
2022/06/09 12:37:36;;;;;;;6.50;2.40;;;22.60;74.70;;;;;;5053478;28;20049;-66
2022/06/09 12:40:13;;;;;;;5.68;2.85;;;22.60;75.00;;;;;;5034370;28;20047;-67
2022/06/09 12:42:52;;;;;;;47.50;42.47;;;22.60;75.10;;;;;;5053333;28;20045;-64
2022/06/09 12:45:24;;;;;;;8.25;5.28;;;22.50;74.90;;;;;;5054220;28;20135;-65
2022/06/09 12:47:58;;;;;;;8.00;3.25;;;22.50;75.30;;;;;;5054683;28;20045;-65
2022/06/09 12:50:38;;;;;;;5.45;2.10;;;22.80;75.90;;;;;;5054404;28;20477;-64
2022/06/09 12:53:07;;;;;;;6.85;2.35;;;23.20;71.20;;;;;;5055459;28;20071;-66
2022/06/09 12:55:37;;;;;;;4.65;1.88;;;23.30;70.70;;;;;;5053926;28;20418;-67
2022/06/09 12:58:18;;;;;;;5.75;2.33;;;23.50;70.80;;;;;;5036598;28;20552;-68
2022/06/09 13:00:48;;;;;;;3.92;2.05;;;23.70;68.10;;;;;;5054130;28;20049;-67
2022/06/09 13:03:26;;;;;;;5.55;1.90;;;23.90;68.60;;;;;;5054803;28;20428;-68
2022/06/09 13:05:53;;;;;;;4.80;1.90;;;24.00;67.30;;;;;;5053739;28;20045;-68
2022/06/09 13:08:25;;;;;;;5.50;1.70;;;24.10;70.40;;;;;;5036324;28;20055;-69
2022/06/09 13:11:01;;;;;;;9.77;2.03;;;23.90;70.10;;;;;;5053633;28;20048;-66
2022/06/09 13:13:37;;;;;;;8.65;3.03;;;24.00;71.70;;;;;;5053626;28;20045;-65
2022/06/09 13:16:15;;;;;;;5.75;1.85;;;23.90;73.70;;;;;;5052815;28;20041;-65
2022/06/09 13:18:44;;;;;;;8.50;4.25;;;23.80;72.70;;;;;;5053338;28;20124;-66
2022/06/09 13:21:18;;;;;;;;;;;23.70;74.00;;;;;;5053021;28;20044;-65
2022/06/09 13:23:49;;;;;;;8.63;5.20;;;23.70;72.70;;;;;;5054929;28;19916;-66
2022/06/09 13:26:27;;;;;;;10.35;6.22;;;23.70;73.10;;;;;;5052558;28;20033;-66
2022/06/09 13:28:57;;;;;;;5.83;2.17;;;23.60;72.70;;;;;;5053682;28;20065;-65